Time;durP1;ratioP1;P1;durP2;ratioP2;P2;SDS_P1;SDS_P2;PMS_P1;PMS_P2;Temp;Humidity;BMP_temperature;BMP_pressure;BME280_temperature;BME280_humidity;BME280_pressure;Samples;Min_cycle;Max_cycle;Signal;HPM_P1;HPM_P2
2023/12/31 00:00:09;;;;;;;1.13;0.90;;;9.00;99.90;;;;;;5038305;28;20052;-76
2023/12/31 00:02:36;;;;;;;2.28;1.60;;;9.00;99.90;;;;;;5039709;28;20090;-78
2023/12/31 00:05:02;;;;;;;2.22;0.98;;;9.10;99.90;;;;;;5032718;28;20552;-78
2023/12/31 00:07:27;;;;;;;1.17;0.75;;;9.10;99.90;;;;;;5046639;28;20033;-76
2023/12/31 00:09:53;;;;;;;1.35;1.00;;;9.10;99.90;;;;;;5034485;28;20053;-73
2023/12/31 00:12:21;;;;;;;0.55;0.55;;;9.10;99.90;;;;;;5018518;28;20494;-73
2023/12/31 00:14:47;;;;;;;1.35;0.75;;;9.10;99.90;;;;;;5015495;28;20046;-74
2023/12/31 00:17:13;;;;;;;1.23;0.55;;;9.10;99.90;;;;;;5009378;28;20044;-78
2023/12/31 00:19:39;;;;;;;4.20;1.60;;;9.10;99.90;;;;;;5038907;28;20454;-75
2023/12/31 00:22:06;;;;;;;2.08;1.02;;;9.10;99.90;;;;;;5030495;28;20052;-76
2023/12/31 00:24:31;;;;;;;1.35;0.73;;;9.10;99.90;;;;;;5032322;28;20173;-77
2023/12/31 00:26:57;;;;;;;2.60;1.10;;;9.00;99.90;;;;;;5034260;28;20428;-76
2023/12/31 00:29:23;;;;;;;1.60;1.30;;;8.90;99.90;;;;;;5030573;28;20104;-77
2023/12/31 00:31:49;;;;;;;2.95;0.90;;;8.90;99.90;;;;;;5029046;28;20413;-77
2023/12/31 00:34:15;;;;;;;2.58;0.93;;;8.90;99.90;;;;;;5030306;28;20128;-75
2023/12/31 00:36:41;;;;;;;2.28;1.00;;;8.90;99.90;;;;;;5037658;28;20032;-76
2023/12/31 00:39:07;;;;;;;1.17;0.90;;;8.90;99.90;;;;;;5028883;28;20120;-76
2023/12/31 00:41:33;;;;;;;1.27;0.82;;;8.90;99.90;;;;;;5030257;28;20049;-75
2023/12/31 00:43:59;;;;;;;2.63;1.48;;;8.90;99.90;;;;;;5029914;28;20055;-76
2023/12/31 00:46:24;;;;;;;2.13;1.00;;;8.90;99.90;;;;;;5035341;28;20041;-73
2023/12/31 00:48:50;;;;;;;1.30;0.95;;;8.90;99.90;;;;;;5036674;28;20046;-75
2023/12/31 00:51:16;;;;;;;1.42;0.75;;;8.90;99.90;;;;;;5045611;28;20044;-78
2023/12/31 00:53:42;;;;;;;0.75;0.50;;;8.90;99.90;;;;;;5028961;28;20030;-76
2023/12/31 00:56:11;;;;;;;0.82;0.65;;;8.90;99.90;;;;;;5067613;28;20470;-74
2023/12/31 00:58:36;;;;;;;2.10;0.85;;;8.90;99.90;;;;;;5033092;28;20074;-76
2023/12/31 01:01:02;;;;;;;2.55;1.42;;;8.90;99.90;;;;;;5031037;28;20053;-75
2023/12/31 01:03:28;;;;;;;1.52;0.82;;;8.90;99.90;;;;;;5034614;28;20052;-79
2023/12/31 01:06:03;;;;;;;1.58;1.02;;;8.80;99.90;;;;;;5030048;28;20053;-75
2023/12/31 01:08:29;;;;;;;2.03;0.98;;;8.80;99.90;;;;;;5034245;28;20053;-75
2023/12/31 01:10:55;;;;;;;0.98;0.63;;;8.80;99.90;;;;;;5037612;28;20057;-75
2023/12/31 01:13:21;;;;;;;1.65;0.70;;;8.80;99.90;;;;;;5030165;28;20034;-77
2023/12/31 01:15:46;;;;;;;1.48;0.70;;;8.70;99.90;;;;;;5037957;28;20048;-80
2023/12/31 01:18:13;;;;;;;1.05;0.63;;;8.70;99.90;;;;;;5034743;28;20087;-76
2023/12/31 01:20:39;;;;;;;1.33;0.70;;;8.60;99.90;;;;;;5033426;28;20475;-80
2023/12/31 01:23:05;;;;;;;3.05;1.33;;;8.60;99.90;;;;;;5017115;28;20119;-78
2023/12/31 01:25:31;;;;;;;1.40;0.55;;;8.60;99.90;;;;;;5030515;28;20466;-74
2023/12/31 01:27:57;;;;;;;2.17;0.80;;;8.50;99.90;;;;;;5030357;28;20092;-78
2023/12/31 01:30:23;;;;;;;1.27;0.80;;;8.50;99.90;;;;;;5031266;28;20038;-75
2023/12/31 01:32:50;;;;;;;0.95;0.65;;;8.40;99.90;;;;;;5029955;28;20048;-77
2023/12/31 01:35:18;;;;;;;0.93;0.40;;;8.40;99.90;;;;;;5032784;28;20641;-82
2023/12/31 01:37:45;;;;;;;0.75;0.60;;;8.40;99.90;;;;;;5014786;28;20041;-75
2023/12/31 01:40:11;;;;;;;1.60;1.00;;;8.30;99.90;;;;;;5063433;28;20072;-74
2023/12/31 01:42:37;;;;;;;1.05;0.75;;;8.30;99.90;;;;;;5031448;28;20058;-77
2023/12/31 01:45:04;;;;;;;2.05;0.63;;;8.30;99.90;;;;;;5021099;28;20048;-75
2023/12/31 01:47:34;;;;;;;1.25;0.60;;;8.30;99.90;;;;;;5034027;28;20037;-74
2023/12/31 01:50:02;;;;;;;1.50;0.85;;;8.20;99.90;;;;;;5016269;28;20037;-74
2023/12/31 01:52:29;;;;;;;0.88;0.75;;;8.20;99.90;;;;;;5071395;28;20593;-76
2023/12/31 01:54:57;;;;;;;0.77;0.73;;;8.20;99.90;;;;;;5029659;28;20049;-79
2023/12/31 01:57:25;;;;;;;1.38;0.63;;;8.20;99.90;;;;;;5040633;28;20076;-76
2023/12/31 01:59:53;;;;;;;1.10;0.88;;;8.20;99.90;;;;;;5037534;28;20040;-77
2023/12/31 02:02:21;;;;;;;1.50;0.90;;;8.20;99.90;;;;;;5037194;28;20045;-75
2023/12/31 02:04:48;;;;;;;1.27;0.88;;;8.20;99.90;;;;;;5037612;28;20116;-78
2023/12/31 02:07:14;;;;;;;0.80;0.40;;;8.20;99.90;;;;;;5030108;28;20041;-75
2023/12/31 02:09:39;;;;;;;0.75;0.50;;;8.20;99.90;;;;;;5032693;28;20540;-75
2023/12/31 02:12:06;;;;;;;0.43;0.28;;;8.20;99.90;;;;;;5032698;28;20107;-80
2023/12/31 02:14:32;;;;;;;2.08;0.75;;;8.20;99.90;;;;;;5036939;28;20041;-79
2023/12/31 02:16:58;;;;;;;1.33;0.45;;;8.20;99.90;;;;;;5036850;28;20125;-75
2023/12/31 02:19:24;;;;;;;2.50;0.90;;;8.20;99.90;;;;;;5036847;28;20029;-75
2023/12/31 02:21:50;;;;;;;1.05;0.57;;;8.20;99.90;;;;;;5033134;28;20470;-76
2023/12/31 02:24:20;;;;;;;0.45;0.40;;;8.20;99.90;;;;;;5038903;28;20037;-75
2023/12/31 02:26:46;;;;;;;1.38;0.65;;;8.20;99.90;;;;;;5029221;28;20033;-80
2023/12/31 02:29:12;;;;;;;1.83;0.43;;;8.20;99.90;;;;;;5035241;28;20512;-78
2023/12/31 02:31:38;;;;;;;1.63;0.88;;;8.30;99.90;;;;;;5040097;28;20029;-76
2023/12/31 02:34:05;;;;;;;0.82;0.40;;;8.30;99.90;;;;;;5036185;28;20128;-78
2023/12/31 02:36:31;;;;;;;0.68;0.45;;;8.30;99.90;;;;;;5019067;28;20044;-77
2023/12/31 02:38:57;;;;;;;2.13;0.75;;;8.30;99.90;;;;;;5021563;28;20033;-77
2023/12/31 02:41:23;;;;;;;1.65;0.85;;;8.30;99.90;;;;;;5031878;28;20124;-75
2023/12/31 02:43:49;;;;;;;0.70;0.50;;;8.30;99.90;;;;;;5069797;28;20045;-76
2023/12/31 02:46:15;;;;;;;3.35;0.93;;;8.30;99.90;;;;;;5039888;28;20041;-77
2023/12/31 02:48:41;;;;;;;0.20;0.20;;;8.30;99.90;;;;;;5018779;28;20083;-77
2023/12/31 02:51:08;;;;;;;0.88;0.57;;;8.30;99.90;;;;;;5039589;28;20080;-76
2023/12/31 02:53:33;;;;;;;2.03;0.90;;;8.30;99.90;;;;;;5038427;28;20041;-80
2023/12/31 02:56:00;;;;;;;0.32;0.28;;;8.30;99.90;;;;;;5024205;28;20034;-79
2023/12/31 02:58:26;;;;;;;1.38;0.85;;;8.30;99.90;;;;;;5039975;28;20111;-78
2023/12/31 03:00:52;;;;;;;1.73;0.60;;;8.30;99.90;;;;;;5026957;28;20215;-75
2023/12/31 03:03:17;;;;;;;0.28;0.28;;;8.40;99.90;;;;;;5061688;28;20037;-78
2023/12/31 03:05:43;;;;;;;2.88;0.43;;;8.30;99.90;;;;;;5048054;28;20060;-75
2023/12/31 03:08:09;;;;;;;0.45;0.25;;;8.40;99.90;;;;;;5030613;28;20037;-78
2023/12/31 03:10:35;;;;;;;0.57;0.32;;;8.40;99.90;;;;;;5036185;28;20076;-78
2023/12/31 03:13:00;;;;;;;0.45;0.40;;;8.40;99.90;;;;;;5015364;28;20099;-76
2023/12/31 03:15:26;;;;;;;0.75;0.63;;;8.40;99.90;;;;;;5032123;28;20041;-77
2023/12/31 03:17:52;;;;;;;2.22;0.47;;;8.40;99.90;;;;;;5036135;28;20544;-80
2023/12/31 03:20:18;;;;;;;1.05;0.60;;;8.50;99.90;;;;;;5031770;28;20033;-78
2023/12/31 03:22:46;;;;;;;0.47;0.40;;;8.50;99.90;;;;;;5021733;28;20072;-76
2023/12/31 03:25:12;;;;;;;0.55;0.30;;;8.50;99.90;;;;;;5031269;28;20049;-76
2023/12/31 03:27:38;;;;;;;1.45;0.47;;;8.50;99.90;;;;;;5031767;28;20051;-76
2023/12/31 03:30:05;;;;;;;0.50;0.28;;;8.50;99.90;;;;;;5034859;28;20080;-75
2023/12/31 03:32:31;;;;;;;0.30;0.30;;;8.60;99.90;;;;;;5020024;28;20069;-75
2023/12/31 03:34:58;;;;;;;1.02;0.52;;;8.50;99.90;;;;;;5015025;28;20465;-77
2023/12/31 03:37:24;;;;;;;0.40;0.38;;;8.50;99.90;;;;;;5033848;28;20041;-78
2023/12/31 03:39:51;;;;;;;3.72;0.80;;;8.50;99.90;;;;;;5066667;28;20055;-78
2023/12/31 03:42:18;;;;;;;1.80;0.88;;;8.60;99.90;;;;;;5062467;28;20073;-77
2023/12/31 03:44:44;;;;;;;0.47;0.30;;;8.50;99.90;;;;;;5051953;28;20041;-73
2023/12/31 03:47:10;;;;;;;1.55;0.55;;;8.50;99.90;;;;;;5035554;28;20038;-76
2023/12/31 03:49:35;;;;;;;0.90;0.45;;;8.50;99.90;;;;;;5035065;28;20055;-76
2023/12/31 03:52:01;;;;;;;0.73;0.45;;;8.50;99.90;;;;;;5035210;28;20095;-78
2023/12/31 03:54:27;;;;;;;1.38;0.50;;;8.50;99.90;;;;;;5029308;28;20486;-73
2023/12/31 03:56:53;;;;;;;0.50;0.50;;;8.50;99.90;;;;;;5032023;28;20045;-75
2023/12/31 03:59:18;;;;;;;1.45;0.55;;;8.60;99.90;;;;;;5014786;28;20049;-73
2023/12/31 04:01:45;;;;;;;1.60;0.50;;;8.60;99.90;;;;;;5038133;28;20041;-75
2023/12/31 04:04:14;;;;;;;2.75;0.57;;;8.60;99.90;;;;;;5039094;28;20060;-74
2023/12/31 04:06:42;;;;;;;2.08;1.02;;;8.70;99.90;;;;;;5030897;28;20045;-76
2023/12/31 04:09:10;;;;;;;3.63;0.57;;;8.60;99.90;;;;;;5063810;28;20061;-73
2023/12/31 04:11:36;;;;;;;1.42;0.80;;;8.70;99.90;;;;;;5031834;28;20041;-75
2023/12/31 04:14:01;;;;;;;0.40;0.30;;;8.60;99.90;;;;;;5035898;28;20492;-75
2023/12/31 04:16:27;;;;;;;0.90;0.47;;;8.60;99.90;;;;;;5030896;28;20029;-74
2023/12/31 04:18:53;;;;;;;1.95;0.65;;;8.60;99.90;;;;;;5038630;28;20041;-73
2023/12/31 04:21:19;;;;;;;3.33;1.02;;;8.60;99.90;;;;;;5027693;28;20041;-75
2023/12/31 04:23:44;;;;;;;3.03;1.17;;;8.60;99.90;;;;;;5036700;28;20525;-75
2023/12/31 04:26:10;;;;;;;1.67;0.82;;;8.60;99.90;;;;;;5031780;28;20568;-79
2023/12/31 04:28:36;;;;;;;0.77;0.60;;;8.60;99.90;;;;;;5033280;28;20045;-76
2023/12/31 04:31:03;;;;;;;3.22;0.80;;;8.60;99.90;;;;;;5021772;28;20132;-77
2023/12/31 04:33:29;;;;;;;0.50;0.40;;;8.60;99.90;;;;;;5033433;28;20041;-74
2023/12/31 04:35:54;;;;;;;1.38;0.47;;;8.60;99.90;;;;;;5027185;28;20145;-75
2023/12/31 04:38:20;;;;;;;1.70;0.70;;;8.70;99.90;;;;;;5025475;28;20709;-76
2023/12/31 04:40:46;;;;;;;0.70;0.45;;;8.60;99.90;;;;;;5062365;28;20470;-75
2023/12/31 04:43:12;;;;;;;1.30;0.75;;;8.70;99.90;;;;;;5036994;28;20040;-75
2023/12/31 04:45:37;;;;;;;1.35;0.63;;;8.70;99.90;;;;;;5036542;28;20121;-79
2023/12/31 04:48:04;;;;;;;4.38;0.70;;;8.60;99.90;;;;;;5034614;28;20044;-76
2023/12/31 04:50:29;;;;;;;0.93;0.68;;;8.60;99.90;;;;;;5030557;28;20033;-76
2023/12/31 04:52:55;;;;;;;2.47;0.98;;;8.70;99.90;;;;;;5034096;28;20359;-76
2023/12/31 04:55:22;;;;;;;3.53;0.80;;;8.70;99.90;;;;;;5029720;28;20121;-75
2023/12/31 04:57:49;;;;;;;0.60;0.50;;;8.60;99.90;;;;;;5024628;28;20504;-79
2023/12/31 05:00:15;;;;;;;1.23;0.73;;;8.60;99.90;;;;;;5030719;28;20053;-75
2023/12/31 05:02:41;;;;;;;0.77;0.57;;;8.60;99.90;;;;;;5025215;28;20042;-77
2023/12/31 05:05:07;;;;;;;2.97;0.80;;;8.60;99.90;;;;;;5029841;28;20037;-78
2023/12/31 05:07:33;;;;;;;0.40;0.40;;;8.60;99.90;;;;;;5038272;28;20039;-76
2023/12/31 05:09:59;;;;;;;2.35;1.20;;;8.60;99.90;;;;;;5029628;28;20061;-79
2023/12/31 05:12:25;;;;;;;1.27;0.40;;;8.70;99.90;;;;;;5030406;28;20489;-81
2023/12/31 05:14:50;;;;;;;0.40;0.25;;;8.70;99.90;;;;;;5034151;28;20042;-77
2023/12/31 05:17:16;;;;;;;10.00;0.68;;;8.70;99.90;;;;;;5030105;28;20076;-78
2023/12/31 05:19:45;;;;;;;0.88;0.73;;;8.70;99.90;;;;;;5065833;28;20038;-78
2023/12/31 05:22:11;;;;;;;4.90;0.77;;;8.70;99.90;;;;;;5038487;28;20072;-78
2023/12/31 05:24:37;;;;;;;1.70;0.60;;;8.70;99.90;;;;;;5017683;28;20068;-79
2023/12/31 05:27:03;;;;;;;1.35;0.80;;;8.70;99.90;;;;;;5027333;28;20537;-78
2023/12/31 05:29:28;;;;;;;0.32;0.30;;;8.80;99.90;;;;;;5033936;28;20036;-78
2023/12/31 05:31:54;;;;;;;0.85;0.57;;;8.70;99.90;;;;;;5035919;28;20076;-77
2023/12/31 05:34:20;;;;;;;1.05;0.60;;;8.80;99.90;;;;;;5038128;28;20474;-76
2023/12/31 05:36:45;;;;;;;0.80;0.60;;;8.70;99.90;;;;;;5041744;28;21082;-79
2023/12/31 05:39:12;;;;;;;6.90;1.42;;;8.70;99.90;;;;;;5034513;28;20041;-78
2023/12/31 05:41:37;;;;;;;1.60;0.63;;;8.70;99.90;;;;;;5040519;28;20033;-77
2023/12/31 05:44:04;;;;;;;1.35;0.68;;;8.70;99.90;;;;;;5042024;28;20386;-77
2023/12/31 05:46:29;;;;;;;1.13;0.85;;;8.70;99.90;;;;;;5016590;28;20041;-79
2023/12/31 05:48:55;;;;;;;1.17;0.55;;;8.70;99.90;;;;;;5037800;28;20048;-79
2023/12/31 05:51:21;;;;;;;0.40;0.30;;;8.80;99.90;;;;;;5037741;28;20474;-79
2023/12/31 05:53:47;;;;;;;1.17;0.70;;;8.80;99.90;;;;;;5020059;28;20046;-80
2023/12/31 05:56:13;;;;;;;1.48;1.10;;;8.80;99.90;;;;;;5026505;28;20048;-80
2023/12/31 05:58:42;;;;;;;0.95;0.70;;;8.80;99.90;;;;;;5033776;28;20059;-76
2023/12/31 06:01:10;;;;;;;0.43;0.30;;;8.90;99.90;;;;;;5074549;28;20053;-76
2023/12/31 06:03:36;;;;;;;0.70;0.50;;;8.80;99.90;;;;;;5033185;28;20045;-75
2023/12/31 06:06:01;;;;;;;1.63;0.70;;;8.90;99.90;;;;;;5025680;28;20055;-76
2023/12/31 06:08:27;;;;;;;1.10;0.70;;;8.90;99.90;;;;;;5036735;28;20037;-77
2023/12/31 06:10:54;;;;;;;0.73;0.60;;;8.90;99.90;;;;;;5032570;28;20100;-81
2023/12/31 06:13:20;;;;;;;0.90;0.50;;;8.90;99.90;;;;;;5028620;28;20044;-77
2023/12/31 06:15:46;;;;;;;1.77;0.75;;;8.90;99.90;;;;;;5022126;28;20037;-76
2023/12/31 06:18:12;;;;;;;1.77;0.77;;;8.90;99.90;;;;;;5033091;28;20068;-81
2023/12/31 06:20:37;;;;;;;1.42;0.70;;;8.90;99.90;;;;;;5033106;28;20042;-79
2023/12/31 06:23:03;;;;;;;4.00;0.80;;;8.90;99.90;;;;;;5032369;28;20045;-75
2023/12/31 06:25:29;;;;;;;0.88;0.68;;;8.90;99.90;;;;;;5036744;28;20075;-79
2023/12/31 06:27:56;;;;;;;2.15;0.90;;;8.80;99.90;;;;;;5037127;28;20124;-78
2023/12/31 06:30:22;;;;;;;1.27;0.82;;;8.80;99.90;;;;;;5036712;28;20068;-77
2023/12/31 06:32:48;;;;;;;1.58;0.70;;;8.80;99.90;;;;;;5032333;28;20033;-78
2023/12/31 06:35:14;;;;;;;1.55;0.90;;;8.70;99.90;;;;;;5036986;28;20103;-78
2023/12/31 06:37:40;;;;;;;4.07;0.68;;;8.70;99.90;;;;;;5039667;28;20313;-78
2023/12/31 06:40:08;;;;;;;4.22;1.60;;;8.60;99.90;;;;;;5027828;28;20425;-77
2023/12/31 06:42:34;;;;;;;1.23;0.40;;;8.60;99.90;;;;;;5043362;28;20056;-76
2023/12/31 06:45:00;;;;;;;1.77;0.88;;;8.60;99.90;;;;;;5043950;28;20037;-76
2023/12/31 06:47:25;;;;;;;3.22;1.50;;;8.70;99.90;;;;;;5027175;28;20053;-76
2023/12/31 06:49:52;;;;;;;1.63;0.93;;;8.70;99.90;;;;;;5017583;28;20121;-76
2023/12/31 06:52:18;;;;;;;3.10;1.15;;;8.70;99.90;;;;;;5019996;28;20037;-77
2023/12/31 06:54:44;;;;;;;1.90;1.00;;;8.70;99.90;;;;;;5040107;28;20105;-77
2023/12/31 06:57:10;;;;;;;1.90;0.88;;;8.70;99.90;;;;;;5036469;28;20029;-80
2023/12/31 06:59:35;;;;;;;1.63;1.10;;;8.70;99.90;;;;;;5040314;28;20512;-78
2023/12/31 07:02:02;;;;;;;2.20;1.00;;;8.80;99.90;;;;;;5039840;28;20040;-75
2023/12/31 07:04:28;;;;;;;2.38;1.30;;;8.80;99.90;;;;;;5035788;28;20079;-77
2023/12/31 07:06:53;;;;;;;3.28;1.15;;;8.80;99.90;;;;;;5039556;28;20485;-78
2023/12/31 07:09:19;;;;;;;1.48;0.90;;;8.90;99.90;;;;;;5018620;28;20049;-78
2023/12/31 07:11:45;;;;;;;1.75;0.90;;;8.90;99.90;;;;;;5032159;28;20133;-73
2023/12/31 07:14:11;;;;;;;2.30;1.00;;;8.90;99.90;;;;;;5031973;28;20037;-75
2023/12/31 07:16:37;;;;;;;0.88;0.80;;;8.90;99.90;;;;;;5040948;28;20417;-78
2023/12/31 07:19:03;;;;;;;1.05;0.85;;;8.90;99.90;;;;;;5036988;28;20068;-75
2023/12/31 07:21:28;;;;;;;1.25;1.15;;;9.00;99.90;;;;;;5023363;28;20379;-77
2023/12/31 07:23:54;;;;;;;1.23;0.75;;;9.00;99.90;;;;;;5037922;28;20049;-74
2023/12/31 07:26:25;;;;;;;2.17;0.80;;;9.00;99.90;;;;;;5038105;28;20033;-76
2023/12/31 07:28:50;;;;;;;1.15;0.73;;;9.10;99.90;;;;;;5039745;28;20580;-79
2023/12/31 07:31:16;;;;;;;1.20;0.82;;;9.10;99.90;;;;;;5031464;28;20116;-74
2023/12/31 07:33:43;;;;;;;0.98;0.77;;;9.10;99.90;;;;;;5028565;28;20056;-76
2023/12/31 07:36:09;;;;;;;0.63;0.57;;;9.20;99.90;;;;;;5031547;28;20041;-74
2023/12/31 07:38:35;;;;;;;2.83;1.20;;;9.10;99.90;;;;;;5027885;28;20034;-74
2023/12/31 07:41:00;;;;;;;2.85;1.20;;;9.10;99.90;;;;;;5060581;28;20041;-76
2023/12/31 07:43:26;;;;;;;1.73;1.05;;;9.20;99.90;;;;;;5034530;28;20040;-75
2023/12/31 07:45:52;;;;;;;1.25;0.73;;;9.20;99.90;;;;;;5037940;28;20550;-74
2023/12/31 07:48:19;;;;;;;1.90;0.70;;;9.20;99.90;;;;;;5031940;28;20045;-72
2023/12/31 07:50:45;;;;;;;3.92;1.73;;;9.20;99.90;;;;;;5033577;28;20041;-72
2023/12/31 07:53:10;;;;;;;3.20;0.80;;;9.20;99.90;;;;;;5031237;28;20045;-76
2023/12/31 07:55:36;;;;;;;1.83;0.93;;;9.20;99.90;;;;;;5017425;28;20044;-73
2023/12/31 07:58:02;;;;;;;1.88;0.80;;;9.20;99.90;;;;;;5030731;28;20037;-71
2023/12/31 08:00:28;;;;;;;1.33;1.02;;;9.20;99.90;;;;;;5035140;28;20049;-76
2023/12/31 08:02:54;;;;;;;1.55;1.10;;;9.20;99.90;;;;;;5030906;28;20056;-76
2023/12/31 08:05:19;;;;;;;4.70;1.27;;;9.30;99.90;;;;;;5039359;28;20044;-72
2023/12/31 08:07:45;;;;;;;2.03;0.93;;;9.30;99.90;;;;;;5035638;28;20115;-74
2023/12/31 08:10:11;;;;;;;0.80;0.63;;;9.40;99.90;;;;;;5036337;28;20453;-75
2023/12/31 08:12:37;;;;;;;1.13;0.98;;;9.30;99.90;;;;;;5034793;28;20125;-80
2023/12/31 08:15:04;;;;;;;1.33;0.75;;;9.40;99.90;;;;;;5064069;28;20083;-79
2023/12/31 08:17:30;;;;;;;3.17;1.08;;;9.40;99.90;;;;;;5037849;28;20033;-77
2023/12/31 08:19:56;;;;;;;2.22;1.25;;;9.40;99.90;;;;;;5036147;28;20134;-72
2023/12/31 08:22:21;;;;;;;2.20;0.93;;;9.40;99.90;;;;;;5039116;28;20037;-75
2023/12/31 08:24:47;;;;;;;2.78;1.80;;;9.40;99.90;;;;;;5031289;28;20470;-76
2023/12/31 08:27:13;;;;;;;3.65;1.42;;;9.40;99.90;;;;;;5042150;28;20033;-74
2023/12/31 08:29:40;;;;;;;1.38;0.50;;;9.40;99.90;;;;;;5038750;28;20046;-75
2023/12/31 08:32:06;;;;;;;3.15;1.08;;;9.30;99.90;;;;;;5038581;28;20099;-77
2023/12/31 08:34:31;;;;;;;4.25;1.50;;;9.30;99.90;;;;;;5031360;28;20059;-74
2023/12/31 08:36:57;;;;;;;2.95;0.98;;;9.30;99.90;;;;;;5014488;28;20041;-74
2023/12/31 08:39:23;;;;;;;1.25;0.82;;;9.30;99.90;;;;;;5008134;28;20098;-75
2023/12/31 08:41:49;;;;;;;1.20;0.95;;;9.30;99.90;;;;;;5030722;28;20041;-75
2023/12/31 08:44:15;;;;;;;4.05;1.48;;;9.30;99.90;;;;;;5030586;28;20040;-77
2023/12/31 08:46:41;;;;;;;3.55;1.65;;;9.30;99.90;;;;;;5034695;28;20128;-72
2023/12/31 08:49:07;;;;;;;1.90;1.13;;;9.30;99.90;;;;;;5034072;28;20478;-74
2023/12/31 08:51:32;;;;;;;2.08;1.42;;;9.40;99.90;;;;;;5052653;28;20038;-77
2023/12/31 08:53:58;;;;;;;1.40;0.77;;;9.40;99.90;;;;;;5018956;28;20038;-75
2023/12/31 08:56:24;;;;;;;2.63;1.58;;;9.40;99.90;;;;;;5019216;28;20030;-78
2023/12/31 08:58:50;;;;;;;1.35;1.05;;;9.40;99.90;;;;;;5051694;28;20054;-79
2023/12/31 09:01:18;;;;;;;1.60;1.27;;;9.40;99.90;;;;;;5018594;28;20500;-76
2023/12/31 09:03:44;;;;;;;4.32;1.15;;;9.40;99.90;;;;;;5008320;28;20520;-76
2023/12/31 09:06:10;;;;;;;1.33;0.70;;;9.40;99.90;;;;;;5020599;28;20050;-75
2023/12/31 09:08:36;;;;;;;5.70;1.50;;;9.40;99.90;;;;;;5025304;28;20050;-73
2023/12/31 09:11:02;;;;;;;1.95;1.42;;;9.40;99.90;;;;;;5035481;28;20057;-77
2023/12/31 09:13:28;;;;;;;2.78;1.55;;;9.30;99.90;;;;;;5056031;28;20038;-77
2023/12/31 09:15:55;;;;;;;2.15;1.17;;;9.30;99.90;;;;;;5019794;28;20715;-74
2023/12/31 09:18:23;;;;;;;0.77;0.50;;;9.30;99.90;;;;;;5024316;28;20037;-77
2023/12/31 09:20:49;;;;;;;1.40;1.02;;;9.30;99.90;;;;;;5055071;28;20533;-77
2023/12/31 09:23:17;;;;;;;2.13;0.90;;;9.30;99.90;;;;;;5018852;28;20049;-79
2023/12/31 09:25:44;;;;;;;1.98;0.70;;;9.20;99.90;;;;;;5025148;28;20164;-73
2023/12/31 09:28:10;;;;;;;1.55;1.00;;;9.10;99.90;;;;;;5055844;28;20045;-78
2023/12/31 09:30:36;;;;;;;1.23;0.88;;;9.00;99.90;;;;;;5021163;28;20049;-75
2023/12/31 09:33:01;;;;;;;1.45;1.00;;;9.00;99.90;;;;;;5056286;28;20049;-78
2023/12/31 09:35:27;;;;;;;2.80;1.20;;;9.00;99.90;;;;;;5043798;28;20043;-76
2023/12/31 09:37:53;;;;;;;4.60;1.67;;;8.90;99.90;;;;;;5055087;28;20037;-78
2023/12/31 09:40:19;;;;;;;2.13;1.10;;;8.90;99.90;;;;;;5054186;28;20060;-74
2023/12/31 09:42:49;;;;;;;2.22;1.13;;;8.90;99.90;;;;;;5053540;28;20390;-78
2023/12/31 09:45:21;;;;;;;2.30;1.23;;;9.00;99.90;;;;;;5027687;28;20045;-78
2023/12/31 09:47:48;;;;;;;2.22;1.42;;;9.00;99.90;;;;;;5027703;28;20082;-82
2023/12/31 09:50:21;;;;;;;2.85;1.75;;;9.00;99.90;;;;;;5057399;28;20038;-77
2023/12/31 09:52:48;;;;;;;3.03;1.23;;;9.10;99.90;;;;;;5023755;28;20038;-76
2023/12/31 09:55:18;;;;;;;2.25;1.52;;;9.10;99.90;;;;;;5056651;28;25282;-78
2023/12/31 09:57:47;;;;;;;2.28;0.98;;;9.20;99.90;;;;;;5056513;28;20389;-79
2023/12/31 10:00:13;;;;;;;2.03;1.13;;;9.20;99.90;;;;;;5024418;28;20038;-76
2023/12/31 10:02:40;;;;;;;2.83;1.40;;;9.20;99.90;;;;;;5026944;28;20053;-79
2023/12/31 10:05:06;;;;;;;4.00;1.35;;;9.30;99.90;;;;;;5027809;28;20048;-78
2023/12/31 10:07:32;;;;;;;2.20;1.23;;;9.30;99.90;;;;;;5029036;28;20041;-78
2023/12/31 10:10:00;;;;;;;3.33;1.42;;;9.40;99.90;;;;;;5039618;28;20053;-76
2023/12/31 10:12:27;;;;;;;1.60;1.10;;;9.40;99.90;;;;;;5041018;28;20042;-78
2023/12/31 10:15:02;;;;;;;2.28;0.95;;;9.40;99.90;;;;;;5022743;28;20453;-75
2023/12/31 10:17:29;;;;;;;2.42;1.08;;;9.50;99.90;;;;;;5017417;28;20091;-74
2023/12/31 10:19:57;;;;;;;2.35;1.38;;;9.50;99.90;;;;;;5001592;28;20065;-78
2023/12/31 10:22:24;;;;;;;1.60;0.70;;;9.50;99.90;;;;;;5051546;28;20473;-75
2023/12/31 10:24:51;;;;;;;2.85;1.27;;;9.60;99.90;;;;;;5022911;28;20045;-78
2023/12/31 10:27:16;;;;;;;2.50;1.63;;;9.60;99.90;;;;;;5026537;28;20037;-81
2023/12/31 10:29:42;;;;;;;1.65;1.17;;;9.70;99.90;;;;;;5019716;28;20501;-76
2023/12/31 10:32:08;;;;;;;4.40;1.13;;;9.70;99.90;;;;;;5041740;28;20030;-77
2023/12/31 10:34:35;;;;;;;3.47;1.27;;;9.70;99.90;;;;;;5024087;28;20049;-74
2023/12/31 10:37:06;;;;;;;2.53;1.42;;;9.70;99.90;;;;;;5051953;28;20470;-76
2023/12/31 10:39:34;;;;;;;1.73;1.33;;;9.60;99.90;;;;;;5020003;28;20049;-74
2023/12/31 10:42:04;;;;;;;4.85;1.42;;;9.50;99.90;;;;;;5019848;28;20079;-73
2023/12/31 10:44:38;;;;;;;1.45;0.82;;;9.50;99.90;;;;;;5024913;28;20083;-71
2023/12/31 10:47:09;;;;;;;1.75;1.25;;;9.50;99.90;;;;;;5039636;28;20042;-71
2023/12/31 10:49:39;;;;;;;1.27;0.75;;;9.40;99.90;;;;;;5006540;28;20045;-70
2023/12/31 10:52:06;;;;;;;0.68;0.68;;;9.30;99.90;;;;;;5020175;28;20557;-68
2023/12/31 10:54:36;;;;;;;0.77;0.40;;;8.90;99.90;;;;;;5008180;28;20033;-70
2023/12/31 10:57:05;;;;;;;3.67;0.63;;;8.50;99.90;;;;;;5055273;28;20390;-71
2023/12/31 10:59:32;;;;;;;0.43;0.20;;;8.00;99.90;;;;;;5019867;28;20037;-71
2023/12/31 11:01:59;;;;;;;1.40;0.40;;;7.70;99.90;;;;;;5023136;28;20064;-71
2023/12/31 11:04:28;;;;;;;0.57;0.20;;;7.50;99.90;;;;;;5024613;28;20068;-71
2023/12/31 11:06:55;;;;;;;0.35;0.25;;;7.50;99.90;;;;;;5053821;28;20737;-70
2023/12/31 11:09:21;;;;;;;0.82;0.35;;;7.50;99.90;;;;;;5020966;28;20049;-70
2023/12/31 11:11:49;;;;;;;0.73;0.50;;;7.60;99.90;;;;;;5025970;28;20038;-70
2023/12/31 11:14:16;;;;;;;3.88;1.05;;;7.60;99.90;;;;;;5018128;28;20051;-70
2023/12/31 11:17:02;;;;;;;0.65;0.30;;;7.70;99.90;;;;;;5025337;28;20042;-70
2023/12/31 11:20:05;;;;;;;0.17;0.17;;;7.80;99.90;;;;;;5024583;28;20072;-70
2023/12/31 11:23:11;;;;;;;0.98;0.52;;;7.90;99.90;;;;;;5009698;28;20049;-71
2023/12/31 11:25:40;;;;;;;0.10;0.10;;;7.90;99.90;;;;;;5036619;28;20049;-70
2023/12/31 11:28:09;;;;;;;0.10;0.10;;;7.90;99.90;;;;;;5039997;28;20489;-70
2023/12/31 11:30:47;;;;;;;0.17;0.10;;;8.00;99.90;;;;;;5023247;28;20513;-70
2023/12/31 11:33:22;;;;;;;0.10;0.10;;;8.00;99.90;;;;;;5056241;28;20507;-69
2023/12/31 11:35:52;;;;;;;0.10;0.10;;;8.00;99.90;;;;;;5054857;28;20048;-71
2023/12/31 11:38:21;;;;;;;2.53;0.28;;;8.10;99.90;;;;;;5022134;28;20041;-69
2023/12/31 11:40:48;;;;;;;0.37;0.20;;;8.20;99.90;;;;;;5021819;28;20041;-70
2023/12/31 11:43:16;;;;;;;0.73;0.10;;;8.30;99.90;;;;;;5007545;28;20077;-70
2023/12/31 11:45:50;;;;;;;0.10;0.10;;;8.30;99.90;;;;;;5008867;28;20053;-69
2023/12/31 11:48:16;;;;;;;0.20;0.10;;;8.60;99.90;;;;;;5007087;28;25255;-71
2023/12/31 11:50:42;;;;;;;0.50;0.30;;;8.90;99.90;;;;;;5023649;28;20660;-78
2023/12/31 11:53:12;;;;;;;0.35;0.35;;;9.10;99.90;;;;;;5025675;28;20224;-71
2023/12/31 11:55:40;;;;;;;2.35;0.15;;;9.10;99.90;;;;;;5022421;28;20047;-71
2023/12/31 11:58:08;;;;;;;5.20;0.32;;;9.00;99.90;;;;;;5052982;28;20555;-71
2023/12/31 12:00:34;;;;;;;0.63;0.38;;;8.90;99.90;;;;;;5025004;28;20056;-70
2023/12/31 12:03:05;;;;;;;0.47;0.47;;;8.90;99.90;;;;;;5024161;28;20377;-71
2023/12/31 12:05:31;;;;;;;2.90;0.20;;;8.90;99.90;;;;;;5008907;28;20462;-69
2023/12/31 12:07:59;;;;;;;1.27;0.47;;;9.00;99.90;;;;;;5022453;28;20049;-70
2023/12/31 12:10:25;;;;;;;1.40;0.60;;;9.20;99.90;;;;;;5023869;28;20054;-70
2023/12/31 12:12:56;;;;;;;0.38;0.38;;;9.20;99.90;;;;;;5055356;28;20045;-69
2023/12/31 12:15:22;;;;;;;2.47;0.75;;;9.20;99.90;;;;;;5022224;28;20079;-71
2023/12/31 12:17:48;;;;;;;2.63;1.05;;;9.10;99.90;;;;;;5017267;28;20033;-72
2023/12/31 12:20:14;;;;;;;0.73;0.30;;;9.10;99.90;;;;;;5022898;28;20038;-72
2023/12/31 12:22:40;;;;;;;0.43;0.38;;;9.00;99.90;;;;;;5022383;28;20056;-71
2023/12/31 12:25:07;;;;;;;0.57;0.45;;;9.00;99.90;;;;;;5020068;28;20049;-74
2023/12/31 12:27:36;;;;;;;0.38;0.30;;;9.10;99.90;;;;;;5037987;28;20370;-74
2023/12/31 12:30:02;;;;;;;0.57;0.40;;;9.10;99.90;;;;;;5052369;28;20484;-71
2023/12/31 12:32:28;;;;;;;0.20;0.20;;;9.10;99.90;;;;;;5048687;28;20111;-71
2023/12/31 12:35:06;;;;;;;0.30;0.30;;;9.10;99.90;;;;;;5018666;28;20456;-76
2023/12/31 12:37:33;;;;;;;0.52;0.40;;;9.00;99.90;;;;;;5008143;28;20050;-71
2023/12/31 12:39:59;;;;;;;1.95;0.75;;;9.00;99.90;;;;;;5033812;28;20599;-73
2023/12/31 12:42:28;;;;;;;1.08;0.38;;;9.00;99.90;;;;;;5022414;28;20056;-73
2023/12/31 12:44:56;;;;;;;2.27;0.80;;;9.00;99.90;;;;;;5018703;28;20041;-71
2023/12/31 12:47:23;;;;;;;0.55;0.40;;;8.90;99.90;;;;;;5021055;28;20038;-76
2023/12/31 12:49:49;;;;;;;4.25;0.52;;;8.90;99.90;;;;;;5019477;28;20129;-71
2023/12/31 12:52:15;;;;;;;1.20;0.63;;;8.90;99.90;;;;;;5022803;28;20160;-71
2023/12/31 12:54:41;;;;;;;0.65;0.50;;;8.90;99.90;;;;;;5036939;28;20041;-74